Sakaide Maru — 3EYR6 — position and weather

sailwx.info

Track history (hours):
 
Tides and Currents Weather Stations Pressure Air Temp Water Temp Dewpoint Dewpoint Depression Visibility Wind Speed Wind Dir Waves Ship Positions

Sakaide Maru

Last reported at 2017-Sep-14 13:45 UTC. Time now 2017-Sep-21 17:45 UTC.
Position N 34°00' E 134°58'.

Length 255 m; draft 7.9 m.

Type: Ship. MMSI: 354898000.

Date/timePositionNaut miles runAvg speedWind from/ knotsBaromVisibWave heightAir tempDewpointWater temp
2017-Sep-14 13:45N 34°00' E 134°58'312.4
2017-Sep-14 13:31N 34°03' E 134°58'612.4
2017-Sep-14 13:00N 34°09' E 134°58'711.8
2017-Sep-14 12:27N 34°16' E 134°58'713.8
2017-Sep-14 11:58N 34°22' E 135°00'714.0
2017-Sep-14 11:27N 34°29' E 135°04'512.1
2017-Sep-14 11:00N 34°34' E 135°07'4 8.0
2017-Sep-14 10:30N 34°36' E 135°03'611.6
2017-Sep-14 10:00N 34°36' E 134°56'612.4
2017-Sep-14 09:30N 34°33' E 134°49'612.3
2017-Sep-14 09:00N 34°31' E 134°42'813.4
2017-Sep-14 08:27N 34°28' E 134°33'  
2017-Sep-10 23:25N 34°34' E 134°49'612.4
2017-Sep-10 22:57N 34°36' E 134°55'510.5
2017-Sep-10 22:29N 34°37' E 135°01'4 7.9
2017-Sep-10 22:01N 34°35' E 135°05'3 5.5
2017-Sep-10 21:30N 34°34' E 135°08'3 6.9
2017-Sep-10 21:00N 34°31' E 135°07'511.0
2017-Sep-10 20:30N 34°26' E 135°04'611.0
2017-Sep-10 20:00N 34°21' E 135°01'5 9.6
2017-Sep-10 19:30N 34°16' E 134°59'5 9.4
2017-Sep-10 19:00N 34°12' E 134°60'3 6.9
2017-Sep-10 18:31N 34°08' E 134°59'2 4.9
2017-Sep-10 18:01N 34°06' E 134°59'3 5.8
2017-Sep-10 17:31N 34°03' E 134°59'3 6.3
2017-Sep-10 17:00N 33°60' E 134°59'4 6.6
2017-Sep-10 16:25N 33°56' E 134°58'  
Track history (hours):
 
Tides and Currents Weather Stations Pressure Air Temp Water Temp Dewpoint Dewpoint Depression Visibility Wind Speed Wind Dir Waves Ship Positions

Sakaide Maru

Last reported at 2017-Sep-14 13:45 UTC. Time now 2017-Sep-21 17:45 UTC.
Position N 34°00' E 134°58'.

Length 255 m; draft 7.9 m.

Type: Ship. MMSI: 354898000.

Date/timePositionNaut miles runAvg speedWind from/ knotsBaromVisibWave heightAir tempDewpointWater temp
2017-Sep-14 13:45N 34°00' E 134°58'312.4
2017-Sep-14 13:31N 34°03' E 134°58'612.4
2017-Sep-14 13:00N 34°09' E 134°58'711.8
2017-Sep-14 12:27N 34°16' E 134°58'713.8
2017-Sep-14 11:58N 34°22' E 135°00'714.0
2017-Sep-14 11:27N 34°29' E 135°04'512.1
2017-Sep-14 11:00N 34°34' E 135°07'4 8.0
2017-Sep-14 10:30N 34°36' E 135°03'611.6
2017-Sep-14 10:00N 34°36' E 134°56'612.4
2017-Sep-14 09:30N 34°33' E 134°49'612.3
2017-Sep-14 09:00N 34°31' E 134°42'813.4
2017-Sep-14 08:27N 34°28' E 134°33'  
2017-Sep-10 23:25N 34°34' E 134°49'612.4
2017-Sep-10 22:57N 34°36' E 134°55'510.5
2017-Sep-10 22:29N 34°37' E 135°01'4 7.9
2017-Sep-10 22:01N 34°35' E 135°05'3 5.5
2017-Sep-10 21:30N 34°34' E 135°08'3 6.9
2017-Sep-10 21:00N 34°31' E 135°07'511.0
2017-Sep-10 20:30N 34°26' E 135°04'611.0
2017-Sep-10 20:00N 34°21' E 135°01'5 9.6
2017-Sep-10 19:30N 34°16' E 134°59'5 9.4
2017-Sep-10 19:00N 34°12' E 134°60'3 6.9
2017-Sep-10 18:31N 34°08' E 134°59'2 4.9
2017-Sep-10 18:01N 34°06' E 134°59'3 5.8
2017-Sep-10 17:31N 34°03' E 134°59'3 6.3
2017-Sep-10 17:00N 33°60' E 134°59'4 6.6
2017-Sep-10 16:25N 33°56' E 134°58'  

Dump ship's entire track history